createdAt,value
2023-03-27T00:00:16.600Z,72007.66
2023-03-27T00:00:51.085Z,72007.66
2023-03-27T00:01:26.235Z,72003.66
2023-03-27T00:01:58.706Z,72009.66
2023-03-27T00:02:31.141Z,72003.66
2023-03-27T00:03:06.272Z,72005.66
2023-03-27T00:03:40.420Z,72003.66
2023-03-27T00:04:17.918Z,72007.66
2023-03-27T00:04:54.803Z,72007.66
2023-03-27T00:05:27.971Z,72011.66
2023-03-27T00:06:00.994Z,72011.66
2023-03-27T00:06:35.974Z,72011.66
2023-03-27T00:07:09.414Z,72007.66
2023-03-27T00:07:41.965Z,72007.66
2023-03-27T00:08:20.322Z,72015.66
2023-03-27T00:08:52.774Z,72009.66
2023-03-27T00:09:26.806Z,72007.66
2023-03-27T00:10:02.937Z,72015.66
2023-03-27T00:10:35.999Z,72015.66
2023-03-27T00:11:08.476Z,72011.66
2023-03-27T00:11:43.448Z,72013.66
2023-03-27T00:12:15.839Z,72011.66
2023-03-27T00:12:48.183Z,72013.66
2023-03-27T00:13:23.173Z,72017.63
2023-03-27T00:13:55.589Z,72011.66
2023-03-27T00:14:27.927Z,72015.66
2023-03-27T00:15:03.409Z,72009.66
2023-03-27T00:15:36.298Z,72019.63
2023-03-27T00:16:09.993Z,72007.66
2023-03-27T00:16:46.505Z,72011.66
2023-03-27T00:17:19.524Z,72011.66
2023-03-27T00:17:54.594Z,72013.66
2023-03-27T00:18:30.259Z,72011.66
2023-03-27T00:19:02.695Z,72011.66
2023-03-27T00:19:36.654Z,72009.66
2023-03-27T00:20:12.546Z,72011.66
2023-03-27T00:20:44.926Z,72009.66
2023-03-27T00:21:17.411Z,72011.66
2023-03-27T00:21:52.404Z,72003.66
2023-03-27T00:22:24.844Z,72007.66
2023-03-27T00:22:57.538Z,72011.66
2023-03-27T00:23:35.625Z,72007.66
2023-03-27T00:24:08.977Z,72011.66
2023-03-27T00:24:41.358Z,72011.66
2023-03-27T00:25:17.291Z,72003.66
2023-03-27T00:25:50.155Z,72007.66
2023-03-27T00:26:22.576Z,72005.66
2023-03-27T00:26:58.421Z,72007.66
2023-03-27T00:27:30.790Z,72007.66
2023-03-27T00:28:04.464Z,72003.66
2023-03-27T00:28:39.471Z,72009.66
2023-03-27T00:29:13.536Z,72007.66
2023-03-27T00:29:46.501Z,72011.66
2023-03-27T00:30:21.503Z,72013.66
2023-03-27T00:31:27.329Z,72015.66
2023-03-27T00:32:02.345Z,72007.66
2023-03-27T00:32:35.061Z,72007.66
2023-03-27T00:33:09.222Z,72009.66
2023-03-27T00:33:41.850Z,72011.66
2023-03-27T00:34:18.006Z,72011.66
2023-03-27T00:34:50.434Z,72011.66
2023-03-27T00:35:23.487Z,72011.66
2023-03-27T00:35:58.511Z,72003.66
2023-03-27T00:36:31.660Z,72007.66
2023-03-27T00:37:05.791Z,72007.66
2023-03-27T00:37:40.912Z,72005.66
2023-03-27T00:38:13.694Z,72007.66
2023-03-27T00:38:48.722Z,72003.66
2023-03-27T00:39:23.899Z,72003.66
2023-03-27T00:39:56.672Z,72001.69
2023-03-27T00:40:29.070Z,72007.66
2023-03-27T00:41:05.102Z,72003.66
2023-03-27T00:41:38.297Z,71999.69
2023-03-27T00:42:13.227Z,72003.66
2023-03-27T00:42:48.858Z,72003.66
2023-03-27T00:43:23.042Z,72001.69
2023-03-27T00:43:56.551Z,72001.69
2023-03-27T00:44:37.404Z,72005.66
2023-03-27T00:45:17.274Z,72009.66
2023-03-27T00:45:52.147Z,72001.69
2023-03-27T00:46:37.983Z,72015.66
2023-03-27T00:47:12.970Z,72011.66
2023-03-27T00:47:46.311Z,72011.66
2023-03-27T00:48:22.326Z,72011.66
2023-03-27T00:48:56.344Z,72009.66
2023-03-27T00:49:33.835Z,72015.66
2023-03-27T00:50:10.729Z,72019.63
2023-03-27T00:50:45.047Z,72011.66
2023-03-27T00:51:20.454Z,72015.66
2023-03-27T00:51:53.740Z,72011.66
2023-03-27T00:52:29.672Z,72017.63
2023-03-27T00:53:07.372Z,72015.66
2023-03-27T00:53:39.788Z,72015.66
2023-03-27T00:54:17.919Z,72011.66
2023-03-27T00:54:52.860Z,72015.66
2023-03-27T00:55:27.157Z,72015.66
2023-03-27T00:56:01.477Z,72015.66
2023-03-27T00:56:34.289Z,72019.63
2023-03-27T00:57:11.891Z,72019.63
2023-03-27T00:57:47.069Z,72015.66
2023-03-27T00:58:23.373Z,72011.66
2023-03-27T00:59:01.254Z,72015.66
2023-03-27T00:59:37.261Z,72015.66
2023-03-27T01:00:13.718Z,72015.66
2023-03-27T01:00:50.136Z,72025.63
2023-03-27T01:01:24.351Z,72015.66
2023-03-27T01:01:58.114Z,72015.66
2023-03-27T01:02:33.200Z,72015.66
2023-03-27T01:03:07.307Z,72019.63
2023-03-27T01:03:41.914Z,72021.63
2023-03-27T01:04:20.632Z,72015.66
2023-03-27T01:04:54.011Z,72019.63
2023-03-27T01:05:27.557Z,72019.63
2023-03-27T01:06:04.485Z,72021.63
2023-03-27T01:06:37.788Z,72019.63
2023-03-27T01:07:12.317Z,72025.63
2023-03-27T01:08:00.333Z,72019.63
2023-03-27T01:08:37.244Z,72023.63
2023-03-27T01:09:20.545Z,72025.63
2023-03-27T01:09:56.682Z,72021.63
2023-03-27T01:10:36.551Z,72023.63
2023-03-27T01:11:18.370Z,72019.63
2023-03-27T01:11:59.627Z,72015.66
2023-03-27T01:12:37.809Z,72029.63
2023-03-27T01:13:26.198Z,72019.63
2023-03-27T01:14:08.888Z,72023.63
2023-03-27T01:14:56.369Z,72027.63
2023-03-27T01:15:35.470Z,72029.63
2023-03-27T01:16:11.265Z,72031.59
2023-03-27T01:16:54.091Z,72029.63
2023-03-27T01:17:42.664Z,72031.59
2023-03-27T01:18:31.275Z,72033.59
2023-03-27T01:19:26.469Z,72031.59
2023-03-27T01:20:35.618Z,72029.63
2023-03-27T01:21:28.145Z,72027.63
2023-03-27T01:22:34.221Z,72035.59
2023-03-27T01:23:36.166Z,72035.59
2023-03-27T01:24:49.347Z,72037.59
2023-03-27T01:25:47.654Z,72033.59
2023-03-27T01:26:58.009Z,72039.59
2023-03-27T01:27:48.310Z,72043.59
2023-03-27T01:28:37.198Z,72043.59
2023-03-27T01:29:11.687Z,72041.59
2023-03-27T01:30:07.939Z,72045.56
2023-03-27T01:30:42.300Z,72047.56
2023-03-27T01:31:28.130Z,72049.56
2023-03-27T01:32:24.734Z,72045.56
2023-03-27T01:33:47.309Z,72045.56
2023-03-27T01:35:01.211Z,72045.56
2023-03-27T01:36:03.411Z,72039.59
2023-03-27T01:37:02.732Z,72043.59
2023-03-27T01:38:06.788Z,72043.59
2023-03-27T01:39:13.609Z,72043.59
2023-03-27T01:39:49.812Z,72043.59
2023-03-27T01:40:28.758Z,72045.56
2023-03-27T01:41:06.080Z,72043.59
2023-03-27T01:41:42.423Z,72043.59
2023-03-27T01:42:21.812Z,72037.59
2023-03-27T01:43:01.156Z,72043.59
2023-03-27T01:43:36.787Z,72045.56
2023-03-27T01:44:17.254Z,72041.59
2023-03-27T01:44:52.793Z,72037.59
2023-03-27T01:45:32.295Z,72037.59
2023-03-27T01:46:08.862Z,72043.59
2023-03-27T01:46:45.148Z,72041.59
2023-03-27T01:47:28.616Z,72035.59
2023-03-27T01:48:05.742Z,72043.59
2023-03-27T01:48:42.940Z,72043.59
2023-03-27T01:49:20.466Z,72049.56
2023-03-27T01:49:56.505Z,72035.59
2023-03-27T01:50:35.450Z,72047.56
2023-03-27T01:51:11.786Z,72051.56
2023-03-27T01:51:47.580Z,72045.56
2023-03-27T01:52:27.846Z,72049.56
2023-03-27T01:53:04.535Z,72051.56
2023-03-27T01:53:42.463Z,72051.56
2023-03-27T01:54:20.542Z,72051.56
2023-03-27T01:54:58.640Z,72051.56
2023-03-27T01:55:36.608Z,72049.56
2023-03-27T01:56:13.697Z,72047.56
2023-03-27T01:56:53.835Z,72049.56
2023-03-27T01:57:34.694Z,72051.56
2023-03-27T01:58:08.893Z,72051.56
2023-03-27T01:58:46.567Z,72051.56
2023-03-27T01:59:22.932Z,72059.53
2023-03-27T02:00:18.846Z,72051.56
2023-03-27T02:00:54.820Z,72053.56
2023-03-27T02:01:34.085Z,72057.56
2023-03-27T02:02:12.569Z,72051.56
2023-03-27T02:02:46.799Z,72051.56
2023-03-27T02:03:23.914Z,72051.56
2023-03-27T02:03:58.574Z,72057.56
2023-03-27T02:04:36.641Z,72055.56
2023-03-27T02:05:16.867Z,72059.53
2023-03-27T02:05:53.306Z,72055.56
2023-03-27T02:06:29.411Z,72055.56
2023-03-27T02:07:06.156Z,72059.53
2023-03-27T02:07:45.674Z,72059.53
2023-03-27T02:08:21.144Z,72067.53
2023-03-27T02:08:58.838Z,72059.53
2023-03-27T02:09:39.071Z,72063.53
2023-03-27T02:10:17.996Z,72061.53
2023-03-27T02:10:54.236Z,72063.53
2023-03-27T02:11:32.367Z,72067.53
2023-03-27T02:12:07.720Z,72065.53
2023-03-27T02:12:43.335Z,72065.53
2023-03-27T02:13:21.704Z,72067.53
2023-03-27T02:13:57.456Z,72059.53
2023-03-27T02:14:32.724Z,72063.53
2023-03-27T02:15:23.422Z,72065.53
2023-03-27T02:16:02.205Z,72067.53
2023-03-27T02:16:36.517Z,72063.53
2023-03-27T02:17:15.767Z,72065.53
2023-03-27T02:17:51.192Z,72071.53
2023-03-27T02:18:28.768Z,72073.50
2023-03-27T02:19:06.046Z,72069.53
2023-03-27T02:19:43.704Z,72075.50
2023-03-27T02:20:16.667Z,72075.50
2023-03-27T02:20:51.738Z,72063.53
2023-03-27T02:21:24.973Z,72069.53
2023-03-27T02:21:57.915Z,72071.53
2023-03-27T02:22:37.701Z,72073.50
2023-03-27T02:23:11.967Z,72071.53
2023-03-27T02:23:47.725Z,72075.50
2023-03-27T02:24:20.350Z,72063.53
2023-03-27T02:24:56.988Z,72071.53
2023-03-27T02:25:34.543Z,72071.53
2023-03-27T02:26:07.082Z,72079.50
2023-03-27T02:26:39.540Z,72075.50
2023-03-27T02:27:20.209Z,72077.50
2023-03-27T02:28:01.695Z,72075.50
2023-03-27T02:29:11.823Z,72079.50
2023-03-27T02:29:51.845Z,72079.50
2023-03-27T02:30:28.090Z,72083.50
2023-03-27T02:31:31.882Z,72077.50
2023-03-27T02:32:09.498Z,72077.50
2023-03-27T02:32:50.276Z,72083.50
2023-03-27T02:33:36.799Z,72073.50
2023-03-27T02:34:21.994Z,72079.50
2023-03-27T02:35:05.606Z,72075.50
2023-03-27T02:35:49.395Z,72081.50
2023-03-27T02:36:29.279Z,72083.50
2023-03-27T02:37:16.390Z,72079.50
2023-03-27T02:38:12.000Z,72083.50
2023-03-27T02:38:56.840Z,72083.50
2023-03-27T02:39:36.126Z,72081.50
2023-03-27T02:40:15.197Z,72087.47
2023-03-27T02:40:56.112Z,72083.50
2023-03-27T02:41:51.831Z,72087.47
2023-03-27T02:42:47.166Z,72083.50
2023-03-27T02:43:22.373Z,72083.50
2023-03-27T02:44:01.120Z,72085.50
2023-03-27T02:44:54.440Z,72089.47
2023-03-27T02:45:34.051Z,72091.47
2023-03-27T02:46:10.665Z,72091.47
2023-03-27T02:46:48.453Z,72085.50
2023-03-27T02:47:25.136Z,72083.50
2023-03-27T02:48:00.854Z,72091.47
2023-03-27T02:48:39.759Z,72085.50
2023-03-27T02:49:16.697Z,72095.47
2023-03-27T02:49:52.598Z,72099.47
2023-03-27T02:50:31.641Z,72097.47
2023-03-27T02:51:14.768Z,72087.47
2023-03-27T02:51:50.108Z,72091.47
2023-03-27T02:52:28.199Z,72097.47
2023-03-27T02:53:02.415Z,72095.47
2023-03-27T02:53:38.884Z,72091.47
2023-03-27T02:54:17.341Z,72097.47
2023-03-27T02:54:53.349Z,72095.47
2023-03-27T02:55:33.400Z,72095.47
2023-03-27T02:56:10.462Z,72095.47
2023-03-27T02:56:46.483Z,72099.47
2023-03-27T02:57:27.825Z,72095.47
2023-03-27T02:58:23.642Z,72095.47
2023-03-27T02:59:19.756Z,72101.44
2023-03-27T02:59:57.354Z,72103.44
2023-03-27T03:00:33.984Z,72103.44
2023-03-27T03:01:22.416Z,72105.44
2023-03-27T03:02:18.192Z,72103.44
2023-03-27T03:03:07.877Z,72107.44
2023-03-27T03:03:43.135Z,72107.44
2023-03-27T03:04:33.585Z,72111.44
2023-03-27T03:05:21.093Z,72115.44
2023-03-27T03:05:53.893Z,72115.44
2023-03-27T03:06:30.437Z,72109.44
2023-03-27T03:07:06.631Z,72121.41
2023-03-27T03:07:40.375Z,72111.44
2023-03-27T03:08:15.806Z,72117.41
2023-03-27T03:08:49.515Z,72119.41
2023-03-27T03:09:22.183Z,72127.41
2023-03-27T03:09:58.479Z,72127.41
2023-03-27T03:10:33.688Z,72123.41
2023-03-27T03:11:08.176Z,72135.38
2023-03-27T03:11:46.529Z,72133.38
2023-03-27T03:12:21.697Z,72131.38
2023-03-27T03:12:54.089Z,72135.38
2023-03-27T03:13:26.499Z,72135.38
2023-03-27T03:14:01.547Z,72139.38
2023-03-27T03:14:36.633Z,72131.38
2023-03-27T03:15:10.781Z,72143.38
2023-03-27T03:15:46.647Z,72143.38
2023-03-27T03:16:20.168Z,72147.34
2023-03-27T03:16:55.121Z,72141.38
2023-03-27T03:17:27.927Z,72153.34
2023-03-27T03:18:00.465Z,72153.34
2023-03-27T03:18:35.458Z,72157.34
2023-03-27T03:19:09.007Z,72155.34
2023-03-27T03:19:41.653Z,72159.31
2023-03-27T03:20:17.257Z,72167.31
2023-03-27T03:20:49.623Z,72163.31
2023-03-27T03:21:21.964Z,72163.31
2023-03-27T03:21:56.995Z,72163.31
2023-03-27T03:22:29.365Z,72167.31
2023-03-27T03:23:02.637Z,72167.31
2023-03-27T03:23:37.627Z,72167.31
2023-03-27T03:24:10.702Z,72167.31
2023-03-27T03:24:43.931Z,72171.31
2023-03-27T03:25:22.701Z,72179.28
2023-03-27T03:25:57.808Z,72183.28
2023-03-27T03:26:38.182Z,72183.28
2023-03-27T03:27:14.622Z,72179.28
2023-03-27T03:27:58.580Z,72179.28
2023-03-27T03:28:35.279Z,72183.28
2023-03-27T03:29:08.125Z,72185.28
2023-03-27T03:29:46.529Z,72187.28
2023-03-27T03:30:27.552Z,72187.28
2023-03-27T03:31:05.779Z,72185.28
2023-03-27T03:31:46.981Z,72191.25
2023-03-27T03:32:19.443Z,72193.25
2023-03-27T03:32:55.641Z,72195.25
2023-03-27T03:33:30.701Z,72195.25
2023-03-27T03:34:03.767Z,72197.25
2023-03-27T03:34:36.329Z,72197.25
2023-03-27T03:35:13.886Z,72201.25
2023-03-27T03:35:47.646Z,72205.22
2023-03-27T03:36:31.075Z,72211.22
2023-03-27T03:37:10.780Z,72199.25
2023-03-27T03:37:44.113Z,72207.22
2023-03-27T03:38:26.645Z,72215.22
2023-03-27T03:38:59.765Z,72217.19
2023-03-27T03:39:32.140Z,72217.19
2023-03-27T03:40:12.162Z,72213.22
2023-03-27T03:40:48.358Z,72211.22
2023-03-27T03:41:28.215Z,72211.22
2023-03-27T03:42:05.668Z,72215.22
2023-03-27T03:42:44.067Z,72221.19
2023-03-27T03:43:19.000Z,72217.19
2023-03-27T03:43:51.554Z,72223.19
2023-03-27T03:44:24.028Z,72211.22
2023-03-27T03:44:59.090Z,72217.19
2023-03-27T03:45:31.542Z,72219.19
2023-03-27T03:46:05.788Z,72223.19
2023-03-27T03:46:41.090Z,72227.19
2023-03-27T03:47:14.446Z,72231.19
2023-03-27T03:47:47.212Z,72225.19
2023-03-27T03:48:23.346Z,72233.16
2023-03-27T03:48:57.901Z,72231.19
2023-03-27T03:49:31.850Z,72239.16
2023-03-27T03:50:07.542Z,72239.16
2023-03-27T03:50:40.429Z,72235.16
2023-03-27T03:51:12.874Z,72247.13
2023-03-27T03:51:48.126Z,72247.13
2023-03-27T03:52:37.447Z,72247.13
2023-03-27T03:53:10.047Z,72243.16
2023-03-27T03:53:45.029Z,72247.13
2023-03-27T03:54:17.452Z,72255.13
2023-03-27T03:54:50.371Z,72249.13
2023-03-27T03:55:25.857Z,72251.13
2023-03-27T03:55:58.413Z,72251.13
2023-03-27T03:56:34.733Z,72247.13
2023-03-27T03:57:09.825Z,72255.13
2023-03-27T03:57:47.262Z,72251.13
2023-03-27T03:58:34.424Z,72255.13
2023-03-27T03:59:11.165Z,72255.13
2023-03-27T04:00:01.612Z,72263.09
2023-03-27T04:00:51.727Z,72267.09
2023-03-27T04:01:38.001Z,72263.09
2023-03-27T04:02:12.593Z,72263.09
2023-03-27T04:02:47.950Z,72271.09
2023-03-27T04:03:22.156Z,72267.09
2023-03-27T04:03:54.784Z,72275.06
2023-03-27T04:04:30.074Z,72275.06
2023-03-27T04:05:16.341Z,72275.06
2023-03-27T04:05:51.374Z,72285.06
2023-03-27T04:06:25.795Z,72279.06
2023-03-27T04:07:05.793Z,72283.06
2023-03-27T04:07:45.874Z,72287.06
2023-03-27T04:08:27.034Z,72279.06
2023-03-27T04:09:11.340Z,72283.06
2023-03-27T04:10:09.207Z,72283.06
2023-03-27T04:10:44.273Z,72287.06
2023-03-27T04:11:43.573Z,72291.03
2023-03-27T04:12:41.632Z,72287.06
2023-03-27T04:13:21.378Z,72301.03
2023-03-27T04:14:19.032Z,72291.03
2023-03-27T04:14:54.474Z,72293.03
2023-03-27T04:16:08.478Z,72299.03
2023-03-27T04:16:45.417Z,72299.03
2023-03-27T04:17:26.733Z,72301.03
2023-03-27T04:18:02.744Z,72303.03
2023-03-27T04:18:35.644Z,72303.03
2023-03-27T04:19:13.024Z,72305.00
2023-03-27T04:19:50.114Z,72307.00
2023-03-27T04:20:26.724Z,72305.00
2023-03-27T04:21:03.250Z,72311.00
2023-03-27T04:21:36.622Z,72318.97
2023-03-27T04:22:09.637Z,72318.97
2023-03-27T04:22:46.870Z,72311.00
2023-03-27T04:23:21.038Z,72322.97
2023-03-27T04:23:53.834Z,72317.00
2023-03-27T04:24:35.794Z,72320.97
2023-03-27T04:25:08.933Z,72326.97
2023-03-27T04:25:41.297Z,72330.97
2023-03-27T04:26:18.440Z,72318.97
2023-03-27T04:27:23.346Z,72330.97
2023-03-27T04:28:07.202Z,72330.97
2023-03-27T04:28:46.567Z,72330.97
2023-03-27T04:29:43.539Z,72332.97
2023-03-27T04:30:34.379Z,72342.94
2023-03-27T04:31:21.336Z,72336.94
2023-03-27T04:32:32.126Z,72348.91
2023-03-27T04:33:30.668Z,72350.91
2023-03-27T04:34:26.114Z,72352.91
2023-03-27T04:35:17.340Z,72350.91
2023-03-27T04:36:06.441Z,72350.91
2023-03-27T04:37:08.803Z,72358.91
2023-03-27T04:37:43.436Z,72358.91
2023-03-27T04:38:21.286Z,72356.91
2023-03-27T04:39:00.479Z,72354.91
2023-03-27T04:39:37.355Z,72362.88
2023-03-27T04:40:14.073Z,72358.91
2023-03-27T04:40:49.634Z,72362.88
2023-03-27T04:41:29.981Z,72362.88
2023-03-27T04:42:04.608Z,72358.91
2023-03-27T04:42:44.166Z,72364.88
2023-03-27T04:43:20.323Z,72362.88
2023-03-27T04:43:52.695Z,72366.88
2023-03-27T04:44:25.203Z,72366.88
2023-03-27T04:45:01.770Z,72370.88
2023-03-27T04:45:35.094Z,72378.84
2023-03-27T04:46:09.635Z,72376.88
2023-03-27T04:46:45.115Z,72378.84
2023-03-27T04:47:18.270Z,72378.84
2023-03-27T04:47:50.959Z,72378.84
2023-03-27T04:48:27.376Z,72380.84
2023-03-27T04:49:01.433Z,72394.81
2023-03-27T04:49:47.053Z,72390.84
2023-03-27T04:50:35.305Z,72390.84
2023-03-27T04:51:09.681Z,72400.81
2023-03-27T04:51:42.295Z,72394.81
2023-03-27T04:52:18.770Z,72392.81
2023-03-27T04:52:52.702Z,72398.81
2023-03-27T04:53:31.346Z,72394.81
2023-03-27T04:54:08.467Z,72406.81
2023-03-27T04:54:47.179Z,72406.81
2023-03-27T04:55:20.147Z,72410.78
2023-03-27T04:55:57.909Z,72412.78
2023-03-27T04:56:31.020Z,72412.78
2023-03-27T04:57:03.944Z,72414.78
2023-03-27T04:57:39.904Z,72410.78
2023-03-27T04:58:15.781Z,72418.78
2023-03-27T04:58:51.562Z,72414.78
2023-03-27T04:59:24.325Z,72422.75
2023-03-27T05:00:24.071Z,72426.75
2023-03-27T05:01:14.793Z,72422.75
2023-03-27T05:02:06.598Z,72428.75
2023-03-27T05:02:56.333Z,72436.72
2023-03-27T05:03:43.389Z,72442.72
2023-03-27T05:04:29.263Z,72432.75
2023-03-27T05:05:17.184Z,72434.75
2023-03-27T05:05:52.645Z,72428.75
2023-03-27T05:06:25.737Z,72442.72
2023-03-27T05:07:00.938Z,72442.72
2023-03-27T05:07:35.974Z,72438.72
2023-03-27T05:08:10.150Z,72446.72
2023-03-27T05:08:42.619Z,72446.72
2023-03-27T05:09:27.206Z,72446.72
2023-03-27T05:10:00.202Z,72446.72
2023-03-27T05:10:34.624Z,72446.72
2023-03-27T05:11:10.979Z,72442.72
2023-03-27T05:11:50.241Z,72450.72
2023-03-27T05:12:24.271Z,72454.69
2023-03-27T05:13:03.782Z,72456.69
2023-03-27T05:13:38.771Z,72454.69
2023-03-27T05:14:11.908Z,72450.72
2023-03-27T05:14:49.418Z,72456.69
2023-03-27T05:15:39.357Z,72452.69
2023-03-27T05:16:17.745Z,72456.69
2023-03-27T05:16:53.983Z,72460.69
2023-03-27T05:17:27.656Z,72458.69
2023-03-27T05:18:06.432Z,72458.69
2023-03-27T05:18:41.759Z,72458.69
2023-03-27T05:19:14.443Z,72466.66
2023-03-27T05:19:54.726Z,72462.69
2023-03-27T05:20:27.398Z,72464.69
2023-03-27T05:21:00.822Z,72466.66
2023-03-27T05:21:36.398Z,72466.66
2023-03-27T05:22:08.780Z,72470.66
2023-03-27T05:22:44.083Z,72466.66
2023-03-27T05:23:39.295Z,72470.66
2023-03-27T05:24:13.078Z,72474.66
2023-03-27T05:24:45.499Z,72472.66
2023-03-27T05:25:21.341Z,72474.66
2023-03-27T05:26:00.699Z,72480.66
2023-03-27T05:26:51.037Z,72478.66
2023-03-27T05:27:24.290Z,72478.66
2023-03-27T05:28:03.438Z,72478.66
2023-03-27T05:28:41.352Z,72476.66
2023-03-27T05:29:17.344Z,72482.63
2023-03-27T05:29:51.899Z,72488.63
2023-03-27T05:30:24.787Z,72482.63
2023-03-27T05:31:10.981Z,72486.63
2023-03-27T05:31:54.616Z,72486.63
2023-03-27T05:32:44.723Z,72482.63
2023-03-27T05:33:24.774Z,72486.63
2023-03-27T05:33:59.832Z,72494.63
2023-03-27T05:34:38.706Z,72494.63
2023-03-27T05:35:19.452Z,72494.63
2023-03-27T05:35:52.824Z,72502.59
2023-03-27T05:36:27.720Z,72506.59
2023-03-27T05:37:05.888Z,72506.59
2023-03-27T05:37:47.788Z,72506.59
2023-03-27T05:38:31.681Z,72508.59
2023-03-27T05:39:17.620Z,72508.59
2023-03-27T05:39:54.788Z,72512.56
2023-03-27T05:40:28.439Z,72514.56
2023-03-27T05:41:02.452Z,72510.59
2023-03-27T05:41:39.561Z,72506.59
2023-03-27T05:42:12.181Z,72518.56
2023-03-27T05:42:46.885Z,72510.59
2023-03-27T05:43:22.150Z,72514.56
2023-03-27T05:43:57.293Z,72518.56
2023-03-27T05:44:30.422Z,72514.56
2023-03-27T05:45:05.460Z,72526.53
2023-03-27T05:45:38.197Z,72524.56
2023-03-27T05:46:11.299Z,72526.53
2023-03-27T05:46:46.826Z,72528.53
2023-03-27T05:47:24.588Z,72532.53
2023-03-27T05:48:01.189Z,72530.53
2023-03-27T05:48:38.796Z,72536.53
2023-03-27T05:49:11.603Z,72538.53
2023-03-27T05:49:48.070Z,72544.50
2023-03-27T05:50:23.166Z,72542.50
2023-03-27T05:50:59.888Z,72540.53
2023-03-27T05:51:32.927Z,72538.53
2023-03-27T05:52:05.744Z,72544.50
2023-03-27T05:52:40.704Z,72546.50
2023-03-27T05:53:13.153Z,72558.47
2023-03-27T05:53:57.051Z,72550.50
2023-03-27T05:54:39.156Z,72554.50
2023-03-27T05:55:16.025Z,72552.50
2023-03-27T05:56:02.728Z,72554.50
2023-03-27T05:56:42.514Z,72562.47
2023-03-27T05:57:17.592Z,72558.47
2023-03-27T05:57:50.036Z,72566.47
2023-03-27T05:58:22.558Z,72562.47
2023-03-27T05:59:00.254Z,72566.47
2023-03-27T05:59:34.806Z,72570.47
2023-03-27T06:00:26.571Z,72570.47
2023-03-27T06:01:01.050Z,72572.44
2023-03-27T06:01:35.299Z,72576.44
2023-03-27T06:02:11.996Z,72574.44
2023-03-27T06:02:54.936Z,72574.44
2023-03-27T06:03:30.637Z,72582.44
2023-03-27T06:04:06.640Z,72582.44
2023-03-27T06:04:59.322Z,72582.44
2023-03-27T06:05:37.730Z,72586.44
2023-03-27T06:06:14.689Z,72582.44
2023-03-27T06:06:50.077Z,72584.44
2023-03-27T06:07:26.211Z,72590.41
2023-03-27T06:07:59.296Z,72588.41
2023-03-27T06:08:31.667Z,72590.41
2023-03-27T06:09:09.898Z,72594.41
2023-03-27T06:09:43.280Z,72598.41
2023-03-27T06:10:37.378Z,72596.41
2023-03-27T06:11:21.630Z,72598.41
2023-03-27T06:11:56.906Z,72596.41
2023-03-27T06:12:30.237Z,72602.38
2023-03-27T06:13:20.763Z,72608.38
2023-03-27T06:14:04.309Z,72606.38
2023-03-27T06:14:56.719Z,72608.38
2023-03-27T06:16:01.632Z,72604.38
2023-03-27T06:17:03.613Z,72614.38
2023-03-27T06:17:54.020Z,72616.38
2023-03-27T06:18:28.991Z,72610.38
2023-03-27T06:19:01.406Z,72618.34
2023-03-27T06:19:33.915Z,72616.38
2023-03-27T06:20:15.536Z,72618.34
2023-03-27T06:20:55.570Z,72614.38
2023-03-27T06:21:30.782Z,72624.34
2023-03-27T06:22:06.336Z,72622.34
2023-03-27T06:22:42.969Z,72618.34
2023-03-27T06:23:18.090Z,72622.34
2023-03-27T06:23:50.786Z,72626.34
2023-03-27T06:24:23.409Z,72630.34
2023-03-27T06:24:58.995Z,72626.34
2023-03-27T06:25:33.746Z,72630.34
2023-03-27T06:26:09.623Z,72628.34
2023-03-27T06:26:41.983Z,72628.34
2023-03-27T06:27:15.334Z,72626.34
2023-03-27T06:27:51.713Z,72630.34
2023-03-27T06:28:24.529Z,72628.34
2023-03-27T06:28:59.510Z,72632.31
2023-03-27T06:29:37.542Z,72628.34
2023-03-27T06:30:14.044Z,72638.31
2023-03-27T06:30:51.472Z,72640.31
2023-03-27T06:31:40.149Z,72644.31
2023-03-27T06:32:21.963Z,72644.31
2023-03-27T06:33:01.763Z,72638.31
2023-03-27T06:33:35.241Z,72646.31
2023-03-27T06:34:15.319Z,72646.31
2023-03-27T06:35:08.790Z,72650.28
2023-03-27T06:36:05.467Z,72656.28
2023-03-27T06:36:42.002Z,72656.28
2023-03-27T06:37:16.609Z,72654.28
2023-03-27T06:37:53.000Z,72658.28
2023-03-27T06:38:29.641Z,72658.28
2023-03-27T06:39:06.499Z,72662.28
2023-03-27T06:39:39.828Z,72660.28
2023-03-27T06:40:20.724Z,72662.28
2023-03-27T06:40:56.178Z,72666.25
2023-03-27T06:41:29.670Z,72666.25
2023-03-27T06:42:33.903Z,72672.25
2023-03-27T06:43:29.136Z,72666.25
2023-03-27T06:44:06.861Z,72674.25
2023-03-27T06:44:56.413Z,72674.25
2023-03-27T06:45:51.693Z,72676.25
2023-03-27T06:46:46.644Z,72672.25
2023-03-27T06:47:23.506Z,72678.22
2023-03-27T06:48:30.316Z,72680.22
2023-03-27T06:49:03.035Z,72678.22
2023-03-27T06:49:38.043Z,72678.22
2023-03-27T06:50:23.013Z,72688.22
2023-03-27T06:50:58.551Z,72690.22
2023-03-27T06:51:31.643Z,72682.22
2023-03-27T06:52:04.428Z,72694.19
2023-03-27T06:52:40.037Z,72694.19
2023-03-27T06:53:38.205Z,72694.19
2023-03-27T06:54:13.670Z,72696.19
2023-03-27T06:54:53.595Z,72694.19
2023-03-27T06:55:27.724Z,72700.19
2023-03-27T06:56:04.257Z,72698.19
2023-03-27T06:56:55.100Z,72700.19
2023-03-27T06:57:30.670Z,72708.19
2023-03-27T06:58:05.458Z,72706.19
2023-03-27T06:58:40.678Z,72710.16
2023-03-27T06:59:13.546Z,72710.16
2023-03-27T06:59:46.626Z,72716.16
2023-03-27T07:00:29.741Z,72718.16
2023-03-27T07:01:30.637Z,72714.16
2023-03-27T07:02:24.599Z,72718.16
2023-03-27T07:03:18.525Z,72724.13
2023-03-27T07:04:05.104Z,72718.16
2023-03-27T07:05:12.502Z,72716.16
2023-03-27T07:05:49.321Z,72722.16
2023-03-27T07:06:25.422Z,72722.16
2023-03-27T07:07:03.213Z,72726.13
2023-03-27T07:07:41.453Z,72726.13
2023-03-27T07:08:24.081Z,72718.16
2023-03-27T07:09:01.384Z,72730.13
2023-03-27T07:09:37.892Z,72722.16
2023-03-27T07:10:13.963Z,72728.13
2023-03-27T07:10:59.834Z,72724.13
2023-03-27T07:11:42.765Z,72736.13
2023-03-27T07:12:18.754Z,72734.13
2023-03-27T07:12:54.448Z,72728.13
2023-03-27T07:13:29.409Z,72734.13
2023-03-27T07:14:04.482Z,72734.13
2023-03-27T07:14:39.666Z,72738.13
2023-03-27T07:15:12.759Z,72746.09
2023-03-27T07:15:50.479Z,72734.13
2023-03-27T07:16:25.120Z,72742.09
2023-03-27T07:17:00.623Z,72742.09
2023-03-27T07:17:48.637Z,72750.09
2023-03-27T07:18:26.492Z,72742.09
2023-03-27T07:19:02.100Z,72746.09
2023-03-27T07:19:39.176Z,72756.06
2023-03-27T07:20:16.514Z,72754.09
2023-03-27T07:20:50.531Z,72750.09
2023-03-27T07:21:29.875Z,72760.06
2023-03-27T07:22:04.721Z,72758.06
2023-03-27T07:22:42.980Z,72764.06
2023-03-27T07:23:27.348Z,72766.06
2023-03-27T07:24:09.261Z,72766.06
2023-03-27T07:24:43.169Z,72766.06
2023-03-27T07:25:19.359Z,72770.06
2023-03-27T07:25:52.424Z,72766.06
2023-03-27T07:26:41.114Z,72770.06
2023-03-27T07:27:25.180Z,72774.03
2023-03-27T07:28:06.059Z,72770.06
2023-03-27T07:28:39.060Z,72778.03
2023-03-27T07:29:15.846Z,72774.03
2023-03-27T07:29:58.942Z,72772.03
2023-03-27T07:30:31.609Z,72782.03
2023-03-27T07:31:32.612Z,72778.03
2023-03-27T07:32:09.645Z,72778.03
2023-03-27T07:32:49.047Z,72782.03
2023-03-27T07:33:24.971Z,72782.03
2023-03-27T07:33:58.150Z,72780.03
2023-03-27T07:34:56.498Z,72778.03
2023-03-27T07:36:01.093Z,72790.00
2023-03-27T07:36:49.345Z,72788.00
2023-03-27T07:37:23.019Z,72796.00
2023-03-27T07:38:21.206Z,72788.00
2023-03-27T07:39:25.963Z,72794.00